createdAt,value
2022-09-07T05:36:01.895Z,2.08
2022-09-07T05:38:30.194Z,1.50
2022-09-07T05:40:59.361Z,1.88
2022-09-07T05:43:26.365Z,1.65
2022-09-07T05:45:56.446Z,1.70
2022-09-07T05:48:23.515Z,1.65
2022-09-07T05:50:52.731Z,1.63
2022-09-07T05:53:21.009Z,1.55
2022-09-07T05:55:50.314Z,1.73
2022-09-07T05:58:18.503Z,2.03
2022-09-07T06:00:46.004Z,1.58
2022-09-07T06:03:13.082Z,1.77
2022-09-07T06:05:40.117Z,2.20
2022-09-07T06:08:07.097Z,1.90
2022-09-07T06:10:44.711Z,1.63
2022-09-07T06:13:11.991Z,1.98
2022-09-07T06:15:39.043Z,1.70
2022-09-07T06:18:06.351Z,2.08
2022-09-07T06:20:33.300Z,1.90
2022-09-07T06:23:00.263Z,2.10
2022-09-07T06:25:27.280Z,2.10
2022-09-07T06:27:54.251Z,2.13
2022-09-07T06:30:22.240Z,2.17
2022-09-07T06:32:49.209Z,2.40
2022-09-07T06:35:16.307Z,2.00
2022-09-07T06:37:43.670Z,1.83
2022-09-07T06:40:11.603Z,2.13
2022-09-07T06:42:39.149Z,2.25
2022-09-07T06:45:06.779Z,2.00
2022-09-07T06:47:33.752Z,2.65
2022-09-07T06:50:01.342Z,1.80
2022-09-07T06:52:29.025Z,1.90
2022-09-07T06:57:27.998Z,1.65
2022-09-07T06:59:55.098Z,2.03
2022-09-07T07:02:22.103Z,1.73
2022-09-07T07:04:50.155Z,2.15
2022-09-07T07:07:17.118Z,1.60
2022-09-07T07:09:44.082Z,1.70
2022-09-07T07:12:11.428Z,2.05
2022-09-07T07:14:44.049Z,1.92
2022-09-07T07:17:11.938Z,2.10
2022-09-07T07:19:38.930Z,1.65
2022-09-07T07:22:18.790Z,2.10
2022-09-07T07:24:52.895Z,1.77
2022-09-07T07:27:21.471Z,1.73
2022-09-07T07:29:48.520Z,2.30
2022-09-07T07:32:15.787Z,2.00
2022-09-07T07:34:42.715Z,1.70
2022-09-07T07:37:09.623Z,1.50
2022-09-07T07:42:24.155Z,1.80
2022-09-07T07:47:38.487Z,1.60
2022-09-07T07:55:43.623Z,1.50
2022-09-07T07:58:11.119Z,1.60
2022-09-07T08:00:53.784Z,1.52
2022-09-07T08:03:23.455Z,1.42
2022-09-07T08:05:51.027Z,1.35
2022-09-07T08:08:18.815Z,1.88
2022-09-07T08:10:47.193Z,1.70
2022-09-07T08:13:15.877Z,2.00
2022-09-07T08:15:46.133Z,1.77
2022-09-07T08:20:41.719Z,1.80
2022-09-07T08:23:08.882Z,1.80
2022-09-07T08:25:36.203Z,1.20
2022-09-07T08:28:04.126Z,1.58
2022-09-07T08:30:31.332Z,1.65
2022-09-07T08:32:58.397Z,1.70
2022-09-07T08:35:25.373Z,1.70
2022-09-07T08:37:52.271Z,1.80
2022-09-07T08:40:20.510Z,1.65
2022-09-07T08:43:12.092Z,1.33
2022-09-07T08:45:48.575Z,1.25
2022-09-07T08:48:29.127Z,1.30
2022-09-07T08:51:12.958Z,1.65
2022-09-07T08:53:46.564Z,1.20
2022-09-07T08:56:31.540Z,1.70
2022-09-07T08:59:11.302Z,1.20
2022-09-07T09:01:42.830Z,1.27
2022-09-07T09:04:23.155Z,1.40
2022-09-07T09:07:13.635Z,1.52
2022-09-07T09:10:16.160Z,1.65
2022-09-07T09:13:04.426Z,1.35
2022-09-07T09:16:17.205Z,1.40
2022-09-07T09:19:06.232Z,1.33
2022-09-07T09:21:35.539Z,1.50
2022-09-07T09:24:19.321Z,1.57
2022-09-07T09:26:53.007Z,1.63
2022-09-07T09:29:22.311Z,1.25
2022-09-07T09:31:53.560Z,1.38
2022-09-07T09:34:25.480Z,1.08
2022-09-07T09:36:56.671Z,1.45
2022-09-07T09:39:38.163Z,1.23
2022-09-07T09:42:24.562Z,1.70
2022-09-07T09:44:52.026Z,1.30
2022-09-07T09:47:32.965Z,1.30
2022-09-07T09:50:06.914Z,1.40
2022-09-07T09:52:47.683Z,1.55
2022-09-07T09:55:35.492Z,1.60
2022-09-07T10:01:35.294Z,0.90
2022-09-07T10:04:24.770Z,1.42
2022-09-07T10:06:55.889Z,1.23
2022-09-07T10:09:29.745Z,1.00
2022-09-07T10:12:08.542Z,1.40
2022-09-07T10:14:47.360Z,1.20
2022-09-07T10:17:36.801Z,1.42
2022-09-07T10:20:15.856Z,1.30
2022-09-07T10:22:52.557Z,1.30
2022-09-07T10:25:34.738Z,1.40
2022-09-07T10:28:12.867Z,1.52
2022-09-07T10:31:24.375Z,1.23
2022-09-07T10:34:38.443Z,1.08
2022-09-07T10:37:09.386Z,1.20
2022-09-07T10:40:16.372Z,1.00
2022-09-07T10:49:19.805Z,1.23
2022-09-07T10:52:03.636Z,1.50
2022-09-07T10:55:15.976Z,1.08
2022-09-07T10:58:08.330Z,1.38
2022-09-07T11:01:13.347Z,1.23
2022-09-07T11:03:57.441Z,1.40
2022-09-07T11:06:48.931Z,1.23
2022-09-07T11:09:50.759Z,1.23
2022-09-07T11:12:31.811Z,1.25
2022-09-07T11:15:12.175Z,1.77
2022-09-07T11:17:55.157Z,0.98
2022-09-07T11:20:37.756Z,1.40
2022-09-07T11:23:22.580Z,1.20
2022-09-07T11:26:11.256Z,1.55
2022-09-07T11:29:28.735Z,1.27
2022-09-07T11:32:21.686Z,1.45
2022-09-07T11:35:03.726Z,1.50
2022-09-07T11:37:41.191Z,1.25
2022-09-07T11:40:23.605Z,1.20
2022-09-07T11:43:15.743Z,1.60
2022-09-07T11:46:04.756Z,1.20
2022-09-07T11:48:52.355Z,1.20
2022-09-07T11:51:26.635Z,1.27
2022-09-07T11:54:02.310Z,1.15
2022-09-07T11:56:45.641Z,1.23
2022-09-07T11:59:52.183Z,1.20
2022-09-07T12:03:07.591Z,0.95
2022-09-07T12:06:04.891Z,1.17
2022-09-07T12:08:48.666Z,1.15
2022-09-07T12:11:58.565Z,0.82
2022-09-07T12:15:10.167Z,0.82
2022-09-07T12:18:06.414Z,1.30
2022-09-07T12:20:54.618Z,0.90
2022-09-07T12:23:32.103Z,1.13
2022-09-07T12:26:34.432Z,1.20
2022-09-07T12:29:01.231Z,0.93
2022-09-07T12:31:59.353Z,1.08
2022-09-07T12:34:33.639Z,0.80
2022-09-07T12:37:26.657Z,0.82
2022-09-07T12:40:30.562Z,1.00
2022-09-07T12:43:15.611Z,0.80
2022-09-07T12:45:42.526Z,0.80
2022-09-07T12:48:44.909Z,1.00
2022-09-07T12:55:28.518Z,1.10
2022-09-07T12:58:40.867Z,0.73
2022-09-07T13:01:33.336Z,0.80
2022-09-07T13:04:42.339Z,0.98
2022-09-07T13:07:46.471Z,0.65
2022-09-07T13:10:36.687Z,1.00
2022-09-07T13:16:14.611Z,0.77
2022-09-07T13:18:47.464Z,0.80
2022-09-07T13:21:15.481Z,0.90
2022-09-07T13:27:25.878Z,1.17
2022-09-07T13:30:01.927Z,0.98
2022-09-07T13:35:24.898Z,0.80
2022-09-07T13:38:03.744Z,0.95
2022-09-07T13:40:39.218Z,0.80
2022-09-07T13:43:14.985Z,0.88
2022-09-07T13:45:56.081Z,1.17
2022-09-07T13:48:47.596Z,0.85
2022-09-07T13:51:48.720Z,0.80
2022-09-07T13:54:46.290Z,0.70
2022-09-07T13:57:32.223Z,0.90
2022-09-07T13:59:59.573Z,0.50
2022-09-07T14:02:35.435Z,0.60
2022-09-07T14:05:03.062Z,0.82
2022-09-07T14:07:33.619Z,0.85
2022-09-07T14:10:21.926Z,0.70
2022-09-07T14:12:53.343Z,0.73
2022-09-07T14:15:37.069Z,0.63
2022-09-07T14:18:22.893Z,0.98
2022-09-07T14:20:52.795Z,0.82
2022-09-07T14:23:31.404Z,0.82
2022-09-07T14:26:25.263Z,0.70
2022-09-07T14:28:55.869Z,1.00
2022-09-07T14:31:25.881Z,0.90
2022-09-07T14:33:59.350Z,0.90
2022-09-07T14:36:45.682Z,0.73
2022-09-07T14:39:17.424Z,0.82
2022-09-07T14:41:46.025Z,0.60
2022-09-07T14:44:38.714Z,0.82
2022-09-07T14:47:21.967Z,0.88
2022-09-07T14:49:52.902Z,0.90
2022-09-07T14:52:43.344Z,0.50
2022-09-07T14:55:32.444Z,1.00
2022-09-07T14:58:24.325Z,0.60
2022-09-07T15:04:21.774Z,0.65
2022-09-07T15:07:04.801Z,0.57
2022-09-07T15:09:38.395Z,0.60
2022-09-07T15:12:38.245Z,0.70
2022-09-07T15:15:33.991Z,0.50
2022-09-07T15:18:27.747Z,0.55
2022-09-07T15:20:57.216Z,0.50
2022-09-07T15:23:25.414Z,0.75
2022-09-07T15:25:54.108Z,0.60
2022-09-07T15:34:20.415Z,0.60
2022-09-07T15:36:53.437Z,0.80
2022-09-07T15:39:29.886Z,0.70
2022-09-07T15:42:00.422Z,0.68
2022-09-07T15:44:45.832Z,0.70
2022-09-07T15:50:00.937Z,0.50
2022-09-07T15:52:31.600Z,0.45
2022-09-07T15:54:59.843Z,0.50
2022-09-07T16:00:18.096Z,0.50
2022-09-07T16:03:05.835Z,0.60
2022-09-07T16:05:33.948Z,0.70
2022-09-07T16:10:53.890Z,0.68
2022-09-07T16:13:23.795Z,0.50
2022-09-07T16:15:51.018Z,0.77
2022-09-07T16:18:18.892Z,0.85
2022-09-07T16:20:47.337Z,0.50
2022-09-07T16:23:16.754Z,0.70
2022-09-07T16:25:57.190Z,0.57
2022-09-07T16:28:24.662Z,0.68
2022-09-07T16:30:51.715Z,0.63
2022-09-07T16:33:18.694Z,0.63
2022-09-07T16:35:59.486Z,0.88
2022-09-07T16:41:26.554Z,0.90
2022-09-07T16:43:54.743Z,0.75
2022-09-07T16:46:25.411Z,0.75
2022-09-07T16:48:53.455Z,0.55
2022-09-07T16:51:22.668Z,0.60
2022-09-07T16:53:52.900Z,0.70
2022-09-07T16:58:52.044Z,0.60
2022-09-07T17:01:22.664Z,0.60
2022-09-07T17:03:50.351Z,0.70
2022-09-07T17:06:20.174Z,0.50
2022-09-07T17:08:47.587Z,0.85
2022-09-07T17:11:28.989Z,0.50
2022-09-07T17:13:57.935Z,0.52
2022-09-07T17:16:31.943Z,0.50
2022-09-07T17:24:21.100Z,0.55
2022-09-07T17:26:48.447Z,0.60
2022-09-07T17:29:15.362Z,0.68
2022-09-07T17:34:30.483Z,0.50
2022-09-07T17:36:57.841Z,0.60
2022-09-07T17:39:24.840Z,0.70
2022-09-07T17:41:52.670Z,0.68
2022-09-07T17:44:21.565Z,0.50
2022-09-07T17:46:48.803Z,0.52
2022-09-07T17:49:16.686Z,0.68
2022-09-07T17:51:44.670Z,0.50
2022-09-07T17:54:15.518Z,0.70
2022-09-07T17:56:43.381Z,0.50
2022-09-07T18:01:58.193Z,0.65
2022-09-07T18:04:25.185Z,1.00
2022-09-07T18:06:54.072Z,0.68
2022-09-07T18:09:21.685Z,0.70
2022-09-07T18:11:49.895Z,0.63
2022-09-07T18:14:18.644Z,0.65
2022-09-07T18:16:48.825Z,0.60
2022-09-07T18:19:16.939Z,0.47
2022-09-07T18:21:45.285Z,0.38
2022-09-07T18:24:23.955Z,0.63
2022-09-07T18:26:53.709Z,0.43
2022-09-07T18:29:33.993Z,0.35
2022-09-07T18:32:08.029Z,0.50
2022-09-07T18:34:37.927Z,0.40
2022-09-07T18:37:05.956Z,0.60
2022-09-07T18:39:35.091Z,0.45
2022-09-07T18:42:02.293Z,0.50
2022-09-07T18:47:23.137Z,0.40
2022-09-07T18:49:51.483Z,0.63
2022-09-07T18:55:08.498Z,0.75
2022-09-07T18:57:36.509Z,0.88
2022-09-07T19:00:07.745Z,0.70
2022-09-07T19:02:35.767Z,0.50
2022-09-07T19:07:50.178Z,0.70
2022-09-07T19:10:17.709Z,0.50
2022-09-07T19:12:46.212Z,0.55
2022-09-07T19:15:13.991Z,0.50
2022-09-07T19:17:40.984Z,0.52
2022-09-07T19:20:09.040Z,0.30
2022-09-07T19:22:35.979Z,0.38
2022-09-07T19:25:03.502Z,0.50
2022-09-07T19:27:32.897Z,0.60
2022-09-07T19:29:59.903Z,0.50
2022-09-07T19:32:27.273Z,0.60
2022-09-07T19:34:55.332Z,0.55
2022-09-07T19:37:27.277Z,0.63
2022-09-07T19:39:57.422Z,0.55
2022-09-07T19:42:25.447Z,0.50
2022-09-07T19:44:54.029Z,0.60
2022-09-07T19:47:23.140Z,0.50
2022-09-07T19:49:50.069Z,0.40
2022-09-07T19:52:17.000Z,0.32
2022-09-07T19:54:43.947Z,0.25
2022-09-07T19:57:11.012Z,0.50
2022-09-07T19:59:37.918Z,0.52
2022-09-07T20:02:06.062Z,0.50
2022-09-07T20:04:33.083Z,0.63
2022-09-07T20:07:00.074Z,0.50
2022-09-07T20:09:27.107Z,0.40
2022-09-07T20:11:54.132Z,0.52
2022-09-07T20:14:21.077Z,0.43
2022-09-07T20:16:48.101Z,0.50
2022-09-07T20:19:15.278Z,0.50
2022-09-07T20:21:42.871Z,0.40
2022-09-07T20:24:12.331Z,0.50
2022-09-07T20:26:39.385Z,0.50
2022-09-07T20:31:54.299Z,0.50
2022-09-07T20:34:21.395Z,0.30
2022-09-07T20:36:52.526Z,0.52
2022-09-07T20:39:20.821Z,0.60
2022-09-07T20:41:48.287Z,0.40
2022-09-07T20:44:17.955Z,0.50
2022-09-07T20:46:47.187Z,0.40
2022-09-07T20:49:15.385Z,0.43
2022-09-07T20:51:46.397Z,0.50
2022-09-07T20:54:13.728Z,0.55
2022-09-07T20:56:40.982Z,0.40
2022-09-07T20:59:08.412Z,0.52
2022-09-07T21:01:35.602Z,0.50
2022-09-07T21:04:03.912Z,0.60
2022-09-07T21:06:31.943Z,0.47
2022-09-07T21:09:00.079Z,0.45
2022-09-07T21:11:31.280Z,0.60
2022-09-07T21:14:07.486Z,0.50
2022-09-07T21:16:36.058Z,0.43
2022-09-07T21:19:07.045Z,0.50
2022-09-07T21:21:38.976Z,0.47
2022-09-07T21:24:14.387Z,0.73
2022-09-07T21:26:41.439Z,0.40
2022-09-07T21:29:14.963Z,0.40
2022-09-07T21:31:41.994Z,0.63
2022-09-07T21:34:09.903Z,0.50
2022-09-07T21:36:37.014Z,0.45
2022-09-07T21:39:04.321Z,0.65
2022-09-07T21:41:31.264Z,0.35
2022-09-07T21:44:01.697Z,0.52
2022-09-07T21:46:31.467Z,0.57
2022-09-07T21:48:59.408Z,0.83
2022-09-07T21:51:27.543Z,0.60
2022-09-07T21:53:57.484Z,0.57
2022-09-07T21:56:25.412Z,0.60
2022-09-07T21:59:00.714Z,0.73
2022-09-07T22:01:29.509Z,0.80
2022-09-07T22:04:04.876Z,0.80
2022-09-07T22:06:33.039Z,0.60
2022-09-07T22:09:01.575Z,0.45
2022-09-07T22:11:30.138Z,0.50
2022-09-07T22:14:01.892Z,0.63
2022-09-07T22:16:30.061Z,0.50
2022-09-07T22:18:57.470Z,0.60
2022-09-07T22:21:27.603Z,0.65
2022-09-07T22:24:01.419Z,0.55
2022-09-07T22:26:33.144Z,0.60
2022-09-07T22:29:00.607Z,0.60
2022-09-07T22:31:31.643Z,0.50
2022-09-07T22:34:02.021Z,0.47
2022-09-07T22:36:32.916Z,0.60
2022-09-07T22:39:04.068Z,0.77
2022-09-07T22:41:34.468Z,0.47
2022-09-07T22:44:01.751Z,0.35
2022-09-07T22:46:31.086Z,0.40
2022-09-07T22:48:59.149Z,0.70
2022-09-07T22:51:27.452Z,0.55
2022-09-07T22:53:57.175Z,0.68
2022-09-07T22:56:31.105Z,0.50
2022-09-07T22:59:05.652Z,0.63
2022-09-07T23:01:33.302Z,0.60
2022-09-07T23:04:01.329Z,0.80
2022-09-07T23:06:34.516Z,0.82
2022-09-07T23:09:06.751Z,0.80
2022-09-07T23:11:33.901Z,0.80
2022-09-07T23:14:04.945Z,0.60
2022-09-07T23:16:31.948Z,0.60
2022-09-07T23:19:00.440Z,0.80
2022-09-07T23:21:28.452Z,0.70
2022-09-07T23:23:59.621Z,0.40
2022-09-07T23:26:30.133Z,0.70
2022-09-07T23:29:01.115Z,0.52
2022-09-07T23:31:30.122Z,0.70
2022-09-07T23:33:57.700Z,0.90
2022-09-07T23:36:25.404Z,0.70
2022-09-07T23:38:56.181Z,0.90
2022-09-07T23:41:24.879Z,1.10
2022-09-07T23:43:52.903Z,0.90
2022-09-07T23:46:20.684Z,0.75
2022-09-07T23:48:48.672Z,0.80
2022-09-07T23:51:21.295Z,0.70
2022-09-07T23:53:50.787Z,0.80
2022-09-07T23:56:17.909Z,0.60
2022-09-07T23:58:44.989Z,0.60
